WFL7610 OMDW-EPPO
Flight info
| Callsign | WFL7610 |
|---|---|
| Flight time | N/A |
| Altitude | 36000 |
| Route | NABIX P699 ORMID M556 ALKAN P699 SOGAT A453 BHR B457 NARMI J735 TAYMA N697 BPN H999 HIL N697 SOBAS/N0483F380 N697 RUKET L550 NOVPA J981 DATOK L550 GENIV/N0473F400 L550 APLON DCT TOMBI UA16 EKSEN UL610 OSGED UL620 APSER UL610 YAA UA16 FENER UT264 TUDBU Q26 ETUBA DCT ENIMA DCT LARMU DCT LENOV L623 MAVOT Z159 NILPU |
| Aircraft | A333/H-SDE1E2E3FGHIJ4J5M1P2RWXYZ/LB1D1 |
Departure
| Time | N/A |
|---|---|
| Airport | Al Maktoum International Airport (OMDW) |
Arrival
| Time | 2026-04-22 17:17 |
|---|---|
| Airport | Poznań-Ławica Airport (EPPO) |
| Time | Latitude | Longitude | Altitude | Speed | Heading |
|---|---|---|---|---|---|
| 2026-04-22 13:17 | 28.68278 | 36.26241 | 37931 ft | 399 kts | 281° |
| 2026-04-22 13:17 | 28.69049 | 36.23204 | 37933 ft | 399 kts | 281° |
| 2026-04-22 13:18 | 28.70583 | 36.17153 | 37931 ft | 400 kts | 281° |
| 2026-04-22 13:18 | 28.72127 | 36.11046 | 37930 ft | 400 kts | 281° |
| 2026-04-22 13:19 | 28.73657 | 36.04986 | 37933 ft | 400 kts | 281° |
| 2026-04-22 13:19 | 28.75195 | 35.98879 | 37932 ft | 400 kts | 281° |
| 2026-04-22 13:20 | 28.76728 | 35.92776 | 37935 ft | 400 kts | 281° |
| 2026-04-22 13:20 | 28.78257 | 35.86679 | 37936 ft | 400 kts | 281° |
| 2026-04-22 13:21 | 28.79787 | 35.80570 | 37934 ft | 400 kts | 281° |
| 2026-04-22 13:21 | 28.81302 | 35.74506 | 37950 ft | 400 kts | 281° |
| 2026-04-22 13:22 | 28.82828 | 35.68385 | 37947 ft | 401 kts | 281° |
| 2026-04-22 13:22 | 28.84349 | 35.62263 | 37933 ft | 401 kts | 281° |
| 2026-04-22 13:23 | 28.85859 | 35.56178 | 37948 ft | 401 kts | 281° |
| 2026-04-22 13:23 | 28.87377 | 35.50046 | 37950 ft | 401 kts | 281° |
| 2026-04-22 13:24 | 28.88896 | 35.43892 | 37927 ft | 404 kts | 281° |
| 2026-04-22 13:24 | 28.90414 | 35.37732 | 37921 ft | 404 kts | 281° |
| 2026-04-22 13:25 | 28.91937 | 35.31557 | 37931 ft | 403 kts | 281° |
| 2026-04-22 13:25 | 28.93450 | 35.25390 | 37920 ft | 403 kts | 281° |
| 2026-04-22 13:26 | 28.94961 | 35.19227 | 37916 ft | 403 kts | 281° |
| 2026-04-22 13:26 | 28.96475 | 35.13032 | 37905 ft | 405 kts | 281° |
| 2026-04-22 13:27 | 28.97979 | 35.06873 | 37902 ft | 406 kts | 281° |
| 2026-04-22 13:27 | 28.99491 | 35.00669 | 37890 ft | 404 kts | 281° |
| 2026-04-22 13:28 | 29.00991 | 34.94496 | 37899 ft | 403 kts | 281° |
| 2026-04-22 13:28 | 29.02484 | 34.88308 | 37892 ft | 403 kts | 280° |
| 2026-04-22 13:29 | 29.03248 | 34.82020 | 37892 ft | 398 kts | 269° |
| 2026-04-22 13:29 | 29.03295 | 34.75725 | 37892 ft | 399 kts | 270° |
| 2026-04-22 13:30 | 29.04092 | 34.69431 | 37895 ft | 403 kts | 282° |
| 2026-04-22 13:30 | 29.06423 | 34.63542 | 37897 ft | 414 kts | 297° |
| 2026-04-22 13:31 | 29.10355 | 34.58595 | 37907 ft | 431 kts | 314° |
| 2026-04-22 13:31 | 29.15651 | 34.55210 | 37901 ft | 452 kts | 331° |
| 2026-04-22 13:32 | 29.21487 | 34.52625 | 37917 ft | 442 kts | 323° |
| 2026-04-22 13:32 | 29.26741 | 34.49070 | 37917 ft | 437 kts | 319° |
| 2026-04-22 13:33 | 29.31839 | 34.45281 | 37919 ft | 436 kts | 318° |
| 2026-04-22 13:33 | 29.36863 | 34.41430 | 37934 ft | 436 kts | 317° |
| 2026-04-22 13:34 | 29.41902 | 34.37559 | 37939 ft | 436 kts | 317° |
| 2026-04-22 13:34 | 29.46957 | 34.33684 | 37936 ft | 436 kts | 318° |
| 2026-04-22 13:35 | 29.52017 | 34.29811 | 37947 ft | 436 kts | 318° |
| 2026-04-22 13:35 | 29.57075 | 34.25937 | 37946 ft | 436 kts | 318° |
| 2026-04-22 13:36 | 29.62288 | 34.22252 | 37946 ft | 442 kts | 322° |
| 2026-04-22 13:36 | 29.67666 | 34.18908 | 37949 ft | 443 kts | 323° |
| 2026-04-22 13:37 | 29.73132 | 34.15590 | 37949 ft | 443 kts | 324° |
| 2026-04-22 13:37 | 29.78585 | 34.12285 | 37949 ft | 442 kts | 324° |
| 2026-04-22 13:38 | 29.84025 | 34.08972 | 37951 ft | 442 kts | 324° |
| 2026-04-22 13:38 | 29.92153 | 34.04007 | 37955 ft | 442 kts | 324° |
| 2026-04-22 13:39 | 29.97603 | 34.00672 | 37956 ft | 442 kts | 324° |
| 2026-04-22 13:39 | 30.03043 | 33.97339 | 37960 ft | 442 kts | 324° |
| 2026-04-22 13:40 | 30.08477 | 33.94007 | 37963 ft | 442 kts | 324° |
| 2026-04-22 13:40 | 30.13913 | 33.90668 | 37964 ft | 442 kts | 324° |
| 2026-04-22 13:41 | 30.19314 | 33.87347 | 37964 ft | 442 kts | 324° |
| 2026-04-22 13:41 | 30.24754 | 33.83999 | 37966 ft | 442 kts | 324° |
| 2026-04-22 13:42 | 30.30178 | 33.80656 | 37966 ft | 441 kts | 324° |
| 2026-04-22 13:42 | 30.35602 | 33.77308 | 37974 ft | 442 kts | 324° |
| 2026-04-22 13:43 | 30.40996 | 33.73974 | 37974 ft | 441 kts | 324° |
| 2026-04-22 13:43 | 30.46418 | 33.70619 | 37990 ft | 442 kts | 324° |
| 2026-04-22 13:44 | 30.51856 | 33.67249 | 37980 ft | 443 kts | 324° |
| 2026-04-22 13:44 | 30.57267 | 33.63891 | 37998 ft | 443 kts | 324° |
| 2026-04-22 13:45 | 30.62716 | 33.60506 | 37998 ft | 443 kts | 324° |
| 2026-04-22 13:45 | 30.68161 | 33.57120 | 37999 ft | 443 kts | 324° |
| 2026-04-22 13:46 | 30.73566 | 33.53754 | 38011 ft | 443 kts | 324° |
| 2026-04-22 13:46 | 30.79008 | 33.50359 | 37997 ft | 444 kts | 324° |
| 2026-04-22 13:47 | 30.84463 | 33.46953 | 38009 ft | 445 kts | 324° |
| 2026-04-22 13:47 | 30.89919 | 33.43543 | 38014 ft | 445 kts | 324° |
| 2026-04-22 13:48 | 30.95345 | 33.40148 | 38018 ft | 445 kts | 324° |
| 2026-04-22 13:48 | 30.99884 | 33.37303 | 38017 ft | 444 kts | 324° |
| 2026-04-22 13:49 | 31.05336 | 33.33880 | 38016 ft | 445 kts | 324° |
| 2026-04-22 13:49 | 31.10793 | 33.30452 | 38014 ft | 445 kts | 324° |
| 2026-04-22 13:50 | 31.16255 | 33.27016 | 38016 ft | 445 kts | 324° |
| 2026-04-22 13:50 | 31.21673 | 33.23603 | 38016 ft | 445 kts | 324° |
| 2026-04-22 13:51 | 31.27127 | 33.20163 | 38014 ft | 445 kts | 324° |
| 2026-04-22 13:51 | 31.32553 | 33.16752 | 38010 ft | 446 kts | 327° |
| 2026-04-22 13:52 | 31.38508 | 33.14357 | 38009 ft | 461 kts | 343° |
| 2026-04-22 13:52 | 31.44965 | 33.13630 | 38010 ft | 467 kts | 349° |
| 2026-04-22 13:53 | 31.51485 | 33.13307 | 38009 ft | 469 kts | 351° |
| 2026-04-22 13:53 | 31.57980 | 33.13042 | 38013 ft | 469 kts | 351° |
| 2026-04-22 13:54 | 31.64500 | 33.12745 | 38005 ft | 468 kts | 350° |
| 2026-04-22 13:54 | 31.70972 | 33.12424 | 38003 ft | 468 kts | 350° |
| 2026-04-22 13:55 | 31.77492 | 33.12093 | 37998 ft | 468 kts | 350° |
| 2026-04-22 13:55 | 31.84003 | 33.11763 | 38000 ft | 467 kts | 351° |
| 2026-04-22 13:56 | 31.90495 | 33.11437 | 38001 ft | 467 kts | 351° |
| 2026-04-22 13:56 | 31.96955 | 33.11111 | 37993 ft | 466 kts | 350° |
| 2026-04-22 13:57 | 32.03453 | 33.10784 | 38015 ft | 467 kts | 351° |
| 2026-04-22 13:57 | 32.09951 | 33.10456 | 37997 ft | 466 kts | 351° |
| 2026-04-22 13:58 | 32.16358 | 33.09920 | 37999 ft | 459 kts | 343° |
| 2026-04-22 13:58 | 32.22307 | 33.07647 | 37999 ft | 443 kts | 326° |
| 2026-04-22 13:59 | 32.27209 | 33.03444 | 38004 ft | 432 kts | 312° |
| 2026-04-22 13:59 | 32.31528 | 32.98534 | 38007 ft | 433 kts | 310° |
| 2026-04-22 14:00 | 32.35780 | 32.93479 | 38007 ft | 433 kts | 310° |
| 2026-04-22 14:00 | 32.40019 | 32.88465 | 38010 ft | 433 kts | 310° |
| 2026-04-22 14:01 | 32.44303 | 32.83441 | 38004 ft | 433 kts | 310° |
| 2026-04-22 14:01 | 32.48589 | 32.78427 | 38004 ft | 433 kts | 310° |
| 2026-04-22 14:02 | 32.52879 | 32.73403 | 38004 ft | 433 kts | 310° |
| 2026-04-22 14:02 | 32.57136 | 32.68409 | 38004 ft | 433 kts | 310° |
| 2026-04-22 14:03 | 32.61419 | 32.63376 | 38004 ft | 433 kts | 310° |
| 2026-04-22 14:03 | 32.65680 | 32.58360 | 38007 ft | 433 kts | 310° |
| 2026-04-22 14:04 | 32.69956 | 32.53320 | 38007 ft | 432 kts | 310° |
| 2026-04-22 14:04 | 32.74230 | 32.48277 | 38007 ft | 432 kts | 310° |
| 2026-04-22 14:05 | 32.78520 | 32.43307 | 38005 ft | 434 kts | 315° |
| 2026-04-22 14:05 | 32.83633 | 32.39351 | 38007 ft | 445 kts | 330° |
| 2026-04-22 14:06 | 32.86553 | 32.38063 | 38011 ft | 449 kts | 336° |
| 2026-04-22 14:06 | 32.92608 | 32.36021 | 38007 ft | 452 kts | 339° |
| 2026-04-22 14:07 | 32.98678 | 32.34186 | 38010 ft | 452 kts | 340° |
| 2026-04-22 14:07 | 33.04761 | 32.32342 | 38007 ft | 450 kts | 339° |
| 2026-04-22 14:08 | 33.10825 | 32.30466 | 38007 ft | 450 kts | 339° |
| 2026-04-22 14:08 | 33.16845 | 32.28581 | 38004 ft | 450 kts | 339° |
| 2026-04-22 14:09 | 33.22897 | 32.26681 | 38001 ft | 449 kts | 339° |
| 2026-04-22 14:09 | 33.28937 | 32.24785 | 38008 ft | 449 kts | 339° |
| 2026-04-22 14:10 | 33.34992 | 32.22881 | 38006 ft | 449 kts | 339° |
| 2026-04-22 14:10 | 33.41006 | 32.20988 | 38002 ft | 449 kts | 339° |
| 2026-04-22 14:11 | 33.47057 | 32.19081 | 38010 ft | 449 kts | 339° |
| 2026-04-22 14:11 | 33.53106 | 32.17173 | 38001 ft | 448 kts | 339° |
| 2026-04-22 14:12 | 33.59121 | 32.15271 | 38000 ft | 448 kts | 339° |
| 2026-04-22 14:12 | 33.65164 | 32.13357 | 38001 ft | 448 kts | 339° |
| 2026-04-22 14:13 | 33.71180 | 32.11450 | 38003 ft | 448 kts | 339° |
| 2026-04-22 14:13 | 33.77205 | 32.09538 | 38003 ft | 448 kts | 339° |
| 2026-04-22 14:14 | 33.83240 | 32.07619 | 38002 ft | 448 kts | 339° |
| 2026-04-22 14:14 | 33.89023 | 32.05160 | 38000 ft | 440 kts | 331° |
| 2026-04-22 14:15 | 33.94619 | 32.02153 | 38001 ft | 440 kts | 329° |
| 2026-04-22 14:15 | 34.00168 | 31.99048 | 37999 ft | 440 kts | 329° |
| 2026-04-22 14:16 | 34.05717 | 31.95930 | 38000 ft | 440 kts | 329° |
| 2026-04-22 14:16 | 34.11268 | 31.92822 | 37998 ft | 440 kts | 329° |
| 2026-04-22 14:17 | 34.16824 | 31.89715 | 37997 ft | 440 kts | 329° |
| 2026-04-22 14:17 | 34.22345 | 31.86625 | 37996 ft | 439 kts | 329° |
| 2026-04-22 14:18 | 34.27902 | 31.83511 | 37997 ft | 439 kts | 329° |
| 2026-04-22 14:18 | 34.33457 | 31.80392 | 37996 ft | 439 kts | 329° |
| 2026-04-22 14:19 | 34.38970 | 31.77293 | 37994 ft | 439 kts | 329° |
| 2026-04-22 14:19 | 34.44521 | 31.74167 | 37999 ft | 439 kts | 329° |
| 2026-04-22 14:20 | 34.52816 | 31.69488 | 37996 ft | 439 kts | 329° |
| 2026-04-22 14:20 | 34.58352 | 31.66359 | 37996 ft | 439 kts | 329° |
| 2026-04-22 14:21 | 34.66655 | 31.61657 | 37990 ft | 439 kts | 329° |
| 2026-04-22 14:22 | 34.74924 | 31.56964 | 37989 ft | 438 kts | 329° |
| 2026-04-22 14:23 | 34.83224 | 31.52244 | 37991 ft | 438 kts | 329° |
| 2026-04-22 14:23 | 34.88718 | 31.49113 | 37989 ft | 438 kts | 329° |
| 2026-04-22 14:24 | 34.94240 | 31.45962 | 37988 ft | 438 kts | 329° |
| 2026-04-22 14:24 | 34.99757 | 31.42809 | 37978 ft | 438 kts | 329° |
| 2026-04-22 14:25 | 35.05275 | 31.39651 | 37979 ft | 437 kts | 329° |
| 2026-04-22 14:25 | 35.10789 | 31.36490 | 37980 ft | 437 kts | 329° |
| 2026-04-22 14:26 | 35.16304 | 31.33324 | 37999 ft | 437 kts | 329° |
| 2026-04-22 14:26 | 35.21811 | 31.30158 | 37978 ft | 437 kts | 329° |
| 2026-04-22 14:27 | 35.27280 | 31.27009 | 37981 ft | 437 kts | 329° |
| 2026-04-22 14:27 | 35.32792 | 31.23831 | 37987 ft | 437 kts | 329° |
| 2026-04-22 14:28 | 35.38302 | 31.20649 | 37982 ft | 437 kts | 329° |
| 2026-04-22 14:28 | 35.43777 | 31.17481 | 37980 ft | 437 kts | 329° |
| 2026-04-22 14:29 | 35.49289 | 31.14288 | 37979 ft | 437 kts | 329° |
| 2026-04-22 14:29 | 35.54763 | 31.11112 | 37978 ft | 437 kts | 329° |
| 2026-04-22 14:30 | 35.60266 | 31.07915 | 37979 ft | 436 kts | 329° |
| 2026-04-22 14:30 | 35.65757 | 31.04719 | 37980 ft | 436 kts | 329° |
| 2026-04-22 14:31 | 35.71249 | 31.01518 | 37979 ft | 436 kts | 329° |
| 2026-04-22 14:31 | 35.76744 | 30.98310 | 37990 ft | 437 kts | 328° |
| 2026-04-22 14:32 | 35.82198 | 30.95122 | 37967 ft | 436 kts | 329° |
| 2026-04-22 14:32 | 35.87687 | 30.91908 | 37971 ft | 436 kts | 329° |
| 2026-04-22 14:33 | 35.93182 | 30.88685 | 37973 ft | 436 kts | 329° |
| 2026-04-22 14:33 | 35.98666 | 30.85465 | 37971 ft | 436 kts | 329° |
| 2026-04-22 14:34 | 36.04373 | 30.82863 | 37970 ft | 446 kts | 341° |
| 2026-04-22 14:34 | 36.10621 | 30.82027 | 37969 ft | 454 kts | 350° |
| 2026-04-22 14:35 | 36.16956 | 30.81772 | 37969 ft | 455 kts | 352° |
| 2026-04-22 14:35 | 36.23256 | 30.81620 | 37969 ft | 455 kts | 352° |
| 2026-04-22 14:36 | 36.29601 | 30.81446 | 37968 ft | 455 kts | 352° |
| 2026-04-22 14:36 | 36.35940 | 30.81243 | 37969 ft | 455 kts | 351° |
| 2026-04-22 14:37 | 36.42280 | 30.81029 | 37969 ft | 455 kts | 351° |
| 2026-04-22 14:37 | 36.48589 | 30.80810 | 37968 ft | 455 kts | 351° |
| 2026-04-22 14:38 | 36.54939 | 30.80590 | 37967 ft | 455 kts | 351° |
| 2026-04-22 14:38 | 36.61234 | 30.80372 | 37973 ft | 455 kts | 351° |
| 2026-04-22 14:39 | 36.66515 | 30.80190 | 38002 ft | 455 kts | 351° |
| 2026-04-22 14:39 | 36.72857 | 30.79970 | 37986 ft | 454 kts | 351° |
| 2026-04-22 14:40 | 36.82345 | 30.79641 | 37995 ft | 454 kts | 351° |
| 2026-04-22 14:40 | 36.88637 | 30.79422 | 38006 ft | 454 kts | 351° |
| 2026-04-22 14:41 | 36.94941 | 30.79055 | 38002 ft | 452 kts | 348° |
| 2026-04-22 14:41 | 37.01198 | 30.78284 | 37985 ft | 451 kts | 347° |
| 2026-04-22 14:42 | 37.07438 | 30.77435 | 37990 ft | 451 kts | 347° |
| 2026-04-22 14:42 | 37.13693 | 30.76619 | 37989 ft | 452 kts | 347° |
| 2026-04-22 14:43 | 37.19941 | 30.75832 | 37988 ft | 453 kts | 347° |
| 2026-04-22 14:43 | 37.26225 | 30.75050 | 37984 ft | 453 kts | 347° |
| 2026-04-22 14:44 | 37.32471 | 30.74270 | 38002 ft | 453 kts | 347° |
| 2026-04-22 14:44 | 37.38770 | 30.73478 | 37983 ft | 453 kts | 347° |
| 2026-04-22 14:45 | 37.44999 | 30.72656 | 37977 ft | 452 kts | 346° |
| 2026-04-22 14:45 | 37.51253 | 30.71745 | 37980 ft | 452 kts | 346° |
| 2026-04-22 14:46 | 37.57512 | 30.70817 | 37973 ft | 452 kts | 346° |
| 2026-04-22 14:46 | 37.63759 | 30.69983 | 37972 ft | 454 kts | 347° |
| 2026-04-22 14:47 | 37.70050 | 30.69218 | 37960 ft | 454 kts | 347° |
| 2026-04-22 14:47 | 37.76361 | 30.68452 | 37968 ft | 455 kts | 347° |
| 2026-04-22 14:48 | 37.82636 | 30.67679 | 37944 ft | 455 kts | 347° |
| 2026-04-22 14:48 | 37.88868 | 30.66522 | 37944 ft | 446 kts | 338° |
| 2026-04-22 14:49 | 37.94652 | 30.63867 | 37953 ft | 439 kts | 331° |
| 2026-04-22 14:49 | 38.00247 | 30.60846 | 37932 ft | 439 kts | 329° |
| 2026-04-22 14:50 | 38.05840 | 30.57735 | 37925 ft | 438 kts | 329° |
| 2026-04-22 14:50 | 38.11435 | 30.54633 | 37922 ft | 438 kts | 330° |
| 2026-04-22 14:51 | 38.17039 | 30.51549 | 37923 ft | 439 kts | 330° |
| 2026-04-22 14:51 | 38.22614 | 30.48483 | 37921 ft | 439 kts | 330° |
| 2026-04-22 14:52 | 38.28232 | 30.45390 | 37911 ft | 439 kts | 330° |
| 2026-04-22 14:52 | 38.33840 | 30.42300 | 37911 ft | 439 kts | 330° |
| 2026-04-22 14:53 | 38.39412 | 30.39222 | 37918 ft | 439 kts | 329° |
| 2026-04-22 14:53 | 38.45022 | 30.36118 | 37924 ft | 438 kts | 329° |
| 2026-04-22 14:54 | 38.50613 | 30.33017 | 37901 ft | 438 kts | 329° |
| 2026-04-22 14:54 | 38.56203 | 30.29912 | 37896 ft | 438 kts | 329° |
| 2026-04-22 14:55 | 38.61765 | 30.26824 | 37891 ft | 438 kts | 329° |
| 2026-04-22 14:55 | 38.67370 | 30.23708 | 37890 ft | 438 kts | 329° |
| 2026-04-22 14:56 | 38.72973 | 30.20586 | 37886 ft | 438 kts | 329° |
| 2026-04-22 14:56 | 38.78571 | 30.17463 | 37886 ft | 438 kts | 329° |
| 2026-04-22 14:57 | 38.84133 | 30.14355 | 37887 ft | 438 kts | 329° |
| 2026-04-22 14:57 | 38.89740 | 30.11215 | 37903 ft | 438 kts | 329° |
| 2026-04-22 14:58 | 38.95330 | 30.08078 | 37875 ft | 438 kts | 329° |
| 2026-04-22 14:58 | 39.00891 | 30.04952 | 37879 ft | 438 kts | 329° |
| 2026-04-22 14:59 | 39.06479 | 30.01804 | 37879 ft | 438 kts | 329° |
| 2026-04-22 14:59 | 39.12065 | 29.98653 | 37883 ft | 438 kts | 329° |
| 2026-04-22 15:00 | 39.17660 | 29.95491 | 37892 ft | 438 kts | 329° |
| 2026-04-22 15:00 | 39.23250 | 29.92328 | 37884 ft | 438 kts | 329° |
| 2026-04-22 15:01 | 39.28831 | 29.89163 | 37882 ft | 438 kts | 329° |
| 2026-04-22 15:01 | 39.34381 | 29.86009 | 37885 ft | 438 kts | 329° |
| 2026-04-22 15:02 | 39.39975 | 29.82844 | 37905 ft | 438 kts | 329° |
| 2026-04-22 15:02 | 39.45572 | 29.79705 | 37886 ft | 438 kts | 329° |
| 2026-04-22 15:03 | 39.51174 | 29.76562 | 37896 ft | 438 kts | 329° |
| 2026-04-22 15:03 | 39.56767 | 29.73414 | 37916 ft | 438 kts | 329° |
| 2026-04-22 15:04 | 39.62325 | 29.70280 | 37945 ft | 438 kts | 329° |
| 2026-04-22 15:04 | 39.67933 | 29.67114 | 37947 ft | 439 kts | 329° |
| 2026-04-22 15:05 | 39.73545 | 29.63941 | 37946 ft | 439 kts | 329° |
| 2026-04-22 15:05 | 39.79117 | 29.60785 | 37965 ft | 439 kts | 329° |
| 2026-04-22 15:06 | 39.84729 | 29.57600 | 37969 ft | 439 kts | 329° |
| 2026-04-22 15:06 | 39.90306 | 29.54425 | 37985 ft | 442 kts | 329° |
| 2026-04-22 15:07 | 39.95940 | 29.51151 | 37999 ft | 443 kts | 328° |
| 2026-04-22 15:07 | 40.01565 | 29.47838 | 38005 ft | 442 kts | 328° |
| 2026-04-22 15:08 | 40.07165 | 29.44531 | 38008 ft | 442 kts | 328° |
| 2026-04-22 15:08 | 40.12775 | 29.41217 | 38034 ft | 442 kts | 328° |
| 2026-04-22 15:09 | 40.18356 | 29.37917 | 38047 ft | 443 kts | 328° |
| 2026-04-22 15:09 | 40.23987 | 29.34583 | 38028 ft | 443 kts | 328° |
| 2026-04-22 15:10 | 40.29604 | 29.31252 | 38048 ft | 443 kts | 328° |
| 2026-04-22 15:10 | 40.35193 | 29.27932 | 38041 ft | 443 kts | 328° |
| 2026-04-22 15:11 | 40.40821 | 29.24581 | 38045 ft | 445 kts | 328° |
| 2026-04-22 15:11 | 40.46452 | 29.21181 | 38037 ft | 442 kts | 325° |
| 2026-04-22 15:12 | 40.51753 | 29.17152 | 38033 ft | 439 kts | 322° |
| 2026-04-22 15:12 | 40.56932 | 29.12984 | 38054 ft | 439 kts | 321° |
| 2026-04-22 15:13 | 40.62129 | 29.08744 | 38042 ft | 439 kts | 321° |
| 2026-04-22 15:13 | 40.67327 | 29.04498 | 38040 ft | 439 kts | 321° |
| 2026-04-22 15:14 | 40.72528 | 29.00252 | 38051 ft | 439 kts | 321° |
| 2026-04-22 15:14 | 40.77697 | 28.96031 | 38052 ft | 439 kts | 321° |
| 2026-04-22 15:15 | 40.82892 | 28.91778 | 38077 ft | 440 kts | 321° |
| 2026-04-22 15:15 | 40.88095 | 28.87513 | 38074 ft | 440 kts | 321° |
| 2026-04-22 15:16 | 40.93301 | 28.83235 | 38075 ft | 440 kts | 321° |
| 2026-04-22 15:16 | 40.97985 | 28.78211 | 38074 ft | 430 kts | 310° |
| 2026-04-22 15:17 | 41.02169 | 28.72614 | 38076 ft | 430 kts | 308° |
| 2026-04-22 15:17 | 41.06288 | 28.66862 | 38072 ft | 429 kts | 308° |
| 2026-04-22 15:18 | 41.10403 | 28.61089 | 38068 ft | 429 kts | 308° |
| 2026-04-22 15:18 | 41.14494 | 28.55369 | 38066 ft | 429 kts | 308° |
| 2026-04-22 15:19 | 41.18609 | 28.49620 | 38065 ft | 429 kts | 308° |
| 2026-04-22 15:19 | 41.22723 | 28.43868 | 38062 ft | 429 kts | 309° |
| 2026-04-22 15:20 | 41.26875 | 28.38140 | 38058 ft | 431 kts | 311° |
| 2026-04-22 15:20 | 41.31626 | 28.33222 | 38053 ft | 437 kts | 320° |
| 2026-04-22 15:21 | 41.36740 | 28.28792 | 38075 ft | 439 kts | 322° |
| 2026-04-22 15:21 | 41.41915 | 28.24445 | 38056 ft | 441 kts | 322° |
| 2026-04-22 15:22 | 41.47086 | 28.20094 | 38056 ft | 441 kts | 322° |
| 2026-04-22 15:22 | 41.52278 | 28.15698 | 38068 ft | 441 kts | 322° |
| 2026-04-22 15:23 | 41.57438 | 28.11305 | 38057 ft | 443 kts | 322° |
| 2026-04-22 15:23 | 41.62643 | 28.06864 | 38055 ft | 443 kts | 322° |
| 2026-04-22 15:24 | 41.67845 | 28.02420 | 38071 ft | 443 kts | 322° |
| 2026-04-22 15:24 | 41.73050 | 27.97963 | 38071 ft | 443 kts | 322° |
| 2026-04-22 15:25 | 41.78211 | 27.93534 | 38071 ft | 443 kts | 322° |
| 2026-04-22 15:25 | 41.83407 | 27.89068 | 38047 ft | 443 kts | 322° |
| 2026-04-22 15:26 | 41.88593 | 27.84601 | 38057 ft | 443 kts | 322° |
| 2026-04-22 15:26 | 41.92910 | 27.80876 | 38064 ft | 443 kts | 322° |
| 2026-04-22 15:27 | 41.98371 | 27.75178 | 38060 ft | 435 kts | 311° |
| 2026-04-22 15:27 | 42.01969 | 27.70449 | 38057 ft | 434 kts | 310° |
| 2026-04-22 15:28 | 42.06199 | 27.64650 | 38054 ft | 434 kts | 309° |
| 2026-04-22 15:28 | 42.10413 | 27.58822 | 38057 ft | 434 kts | 310° |
| 2026-04-22 15:29 | 42.14638 | 27.52992 | 38077 ft | 435 kts | 309° |
| 2026-04-22 15:30 | 42.20983 | 27.44241 | 38053 ft | 438 kts | 309° |
| 2026-04-22 15:30 | 42.25243 | 27.38355 | 38059 ft | 438 kts | 310° |
| 2026-04-22 15:31 | 42.29526 | 27.32423 | 38055 ft | 442 kts | 310° |
| 2026-04-22 15:31 | 42.33803 | 27.26489 | 38051 ft | 443 kts | 310° |
| 2026-04-22 15:32 | 42.38108 | 27.20505 | 38049 ft | 443 kts | 309° |
| 2026-04-22 15:32 | 42.42406 | 27.14514 | 38053 ft | 444 kts | 310° |
| 2026-04-22 15:33 | 42.46722 | 27.08487 | 38061 ft | 446 kts | 310° |
| 2026-04-22 15:33 | 42.51023 | 27.02469 | 38042 ft | 447 kts | 310° |
| 2026-04-22 15:34 | 42.55349 | 26.96404 | 38042 ft | 447 kts | 310° |
| 2026-04-22 15:34 | 42.59668 | 26.90335 | 38048 ft | 447 kts | 310° |
| 2026-04-22 15:35 | 42.63978 | 26.84265 | 38049 ft | 446 kts | 310° |
| 2026-04-22 15:35 | 42.68291 | 26.78177 | 38043 ft | 446 kts | 310° |
| 2026-04-22 15:36 | 42.72594 | 26.72091 | 38042 ft | 446 kts | 310° |
| 2026-04-22 15:36 | 42.76889 | 26.66004 | 38047 ft | 444 kts | 310° |
| 2026-04-22 15:37 | 42.81367 | 26.60207 | 38042 ft | 447 kts | 319° |
| 2026-04-22 15:37 | 42.86658 | 26.55766 | 38041 ft | 451 kts | 327° |
| 2026-04-22 15:38 | 42.92211 | 26.51722 | 38040 ft | 453 kts | 328° |
| 2026-04-22 15:38 | 43.00609 | 26.45756 | 38057 ft | 453 kts | 328° |
| 2026-04-22 15:39 | 43.06166 | 26.41765 | 38042 ft | 454 kts | 328° |
| 2026-04-22 15:39 | 43.11757 | 26.37722 | 38040 ft | 454 kts | 328° |
| 2026-04-22 15:40 | 43.17345 | 26.33669 | 38042 ft | 454 kts | 328° |
| 2026-04-22 15:40 | 43.22936 | 26.29606 | 38043 ft | 454 kts | 328° |
| 2026-04-22 15:41 | 43.28515 | 26.25545 | 38042 ft | 454 kts | 328° |
| 2026-04-22 15:41 | 43.34072 | 26.21491 | 38042 ft | 454 kts | 328° |
| 2026-04-22 15:42 | 43.39665 | 26.17403 | 38046 ft | 455 kts | 328° |
| 2026-04-22 15:42 | 43.45257 | 26.13307 | 38042 ft | 454 kts | 328° |
| 2026-04-22 15:43 | 43.50793 | 26.09243 | 38043 ft | 454 kts | 328° |
| 2026-04-22 15:43 | 43.56378 | 26.05135 | 38041 ft | 455 kts | 328° |
| 2026-04-22 15:44 | 43.61968 | 26.01014 | 38045 ft | 455 kts | 328° |
| 2026-04-22 15:44 | 43.67557 | 25.96885 | 38045 ft | 455 kts | 328° |
| 2026-04-22 15:45 | 43.73145 | 25.92748 | 38043 ft | 455 kts | 328° |
| 2026-04-22 15:45 | 43.78698 | 25.88629 | 38045 ft | 455 kts | 328° |
| 2026-04-22 15:46 | 43.84289 | 25.84472 | 38042 ft | 455 kts | 328° |
| 2026-04-22 15:46 | 43.89879 | 25.80307 | 38044 ft | 455 kts | 328° |
| 2026-04-22 15:47 | 43.95460 | 25.76139 | 38042 ft | 455 kts | 328° |
| 2026-04-22 15:47 | 44.01017 | 25.71981 | 38045 ft | 456 kts | 328° |
| 2026-04-22 15:48 | 44.06612 | 25.67786 | 38047 ft | 456 kts | 328° |
| 2026-04-22 15:48 | 44.12207 | 25.63581 | 38041 ft | 457 kts | 328° |
| 2026-04-22 15:49 | 44.17693 | 25.59449 | 38044 ft | 457 kts | 328° |
| 2026-04-22 15:49 | 44.23353 | 25.55177 | 38046 ft | 457 kts | 328° |
| 2026-04-22 15:50 | 44.28949 | 25.50944 | 38035 ft | 457 kts | 328° |
| 2026-04-22 15:50 | 44.34553 | 25.46696 | 38048 ft | 458 kts | 329° |
| 2026-04-22 15:51 | 44.40152 | 25.42442 | 38044 ft | 458 kts | 329° |
| 2026-04-22 15:51 | 44.45754 | 25.38177 | 38045 ft | 458 kts | 329° |
| 2026-04-22 15:52 | 44.51363 | 25.33897 | 38049 ft | 458 kts | 329° |
| 2026-04-22 15:52 | 44.56934 | 25.29636 | 38280 ft | 458 kts | 329° |
| 2026-04-22 15:53 | 44.59737 | 25.27489 | 38542 ft | 458 kts | 329° |
| 2026-04-22 15:53 | 44.62537 | 25.25342 | 38795 ft | 457 kts | 329° |
| 2026-04-22 15:53 | 44.65333 | 25.23196 | 38961 ft | 458 kts | 329° |
| 2026-04-22 15:53 | 44.68134 | 25.21045 | 39129 ft | 458 kts | 329° |
| 2026-04-22 15:54 | 44.70927 | 25.18896 | 39291 ft | 458 kts | 329° |
| 2026-04-22 15:54 | 44.73725 | 25.16741 | 39453 ft | 458 kts | 329° |
| 2026-04-22 15:54 | 44.76488 | 25.14611 | 39600 ft | 459 kts | 329° |
| 2026-04-22 15:54 | 44.79293 | 25.12446 | 39758 ft | 460 kts | 329° |
| 2026-04-22 15:55 | 44.82098 | 25.10278 | 39920 ft | 460 kts | 329° |
| 2026-04-22 15:55 | 44.84904 | 25.08108 | 40030 ft | 461 kts | 329° |
| 2026-04-22 15:55 | 44.90543 | 25.03738 | 40049 ft | 462 kts | 329° |
| 2026-04-22 15:56 | 44.96175 | 24.99364 | 40048 ft | 462 kts | 329° |
| 2026-04-22 15:56 | 45.01803 | 24.94982 | 40051 ft | 462 kts | 329° |
| 2026-04-22 15:57 | 45.07424 | 24.90562 | 40051 ft | 462 kts | 328° |
| 2026-04-22 15:57 | 45.13050 | 24.86131 | 40055 ft | 463 kts | 329° |
| 2026-04-22 15:58 | 45.18699 | 24.81710 | 40053 ft | 463 kts | 329° |
| 2026-04-22 15:58 | 45.24319 | 24.77316 | 40057 ft | 463 kts | 329° |
| 2026-04-22 15:59 | 45.29963 | 24.72895 | 40057 ft | 463 kts | 329° |
| 2026-04-22 15:59 | 45.35608 | 24.68461 | 40061 ft | 464 kts | 329° |
| 2026-04-22 16:00 | 45.41259 | 24.64013 | 40067 ft | 463 kts | 329° |
| 2026-04-22 16:00 | 45.46893 | 24.59566 | 40065 ft | 463 kts | 329° |
| 2026-04-22 16:01 | 45.52528 | 24.55110 | 40077 ft | 463 kts | 329° |
| 2026-04-22 16:01 | 45.58130 | 24.50668 | 40062 ft | 464 kts | 329° |
| 2026-04-22 16:02 | 45.63776 | 24.46181 | 40067 ft | 464 kts | 329° |
| 2026-04-22 16:02 | 45.69420 | 24.41687 | 40070 ft | 464 kts | 329° |
| 2026-04-22 16:03 | 45.75068 | 24.37178 | 40073 ft | 464 kts | 329° |
| 2026-04-22 16:03 | 45.80716 | 24.32657 | 40075 ft | 465 kts | 329° |
| 2026-04-22 16:04 | 45.86327 | 24.28157 | 40072 ft | 465 kts | 329° |
| 2026-04-22 16:04 | 45.91981 | 24.23610 | 40072 ft | 465 kts | 329° |
| 2026-04-22 16:05 | 45.97623 | 24.19063 | 40072 ft | 465 kts | 329° |
| 2026-04-22 16:05 | 46.03267 | 24.14503 | 40068 ft | 465 kts | 329° |
| 2026-04-22 16:06 | 46.08917 | 24.09927 | 40066 ft | 466 kts | 329° |
| 2026-04-22 16:06 | 46.14574 | 24.05336 | 40063 ft | 467 kts | 329° |
| 2026-04-22 16:07 | 46.20197 | 24.00760 | 40066 ft | 467 kts | 329° |
| 2026-04-22 16:07 | 46.25848 | 23.96152 | 40066 ft | 466 kts | 329° |
| 2026-04-22 16:08 | 46.31505 | 23.91528 | 40064 ft | 466 kts | 329° |
| 2026-04-22 16:08 | 46.37160 | 23.86894 | 40063 ft | 466 kts | 329° |
| 2026-04-22 16:09 | 46.42774 | 23.82284 | 40064 ft | 466 kts | 329° |
| 2026-04-22 16:09 | 46.48424 | 23.77632 | 40072 ft | 466 kts | 329° |
| 2026-04-22 16:10 | 46.54062 | 23.72978 | 40069 ft | 466 kts | 329° |
| 2026-04-22 16:10 | 46.59710 | 23.68304 | 40067 ft | 466 kts | 329° |
| 2026-04-22 16:11 | 46.65330 | 23.63643 | 40077 ft | 465 kts | 329° |
| 2026-04-22 16:11 | 46.70909 | 23.59004 | 40075 ft | 465 kts | 329° |
| 2026-04-22 16:12 | 46.76530 | 23.54320 | 40075 ft | 464 kts | 329° |
| 2026-04-22 16:12 | 46.82136 | 23.49638 | 40076 ft | 464 kts | 329° |
| 2026-04-22 16:13 | 46.87744 | 23.44942 | 40078 ft | 465 kts | 330° |
| 2026-04-22 16:13 | 46.93355 | 23.40232 | 40080 ft | 466 kts | 330° |
| 2026-04-22 16:14 | 46.98971 | 23.35505 | 40087 ft | 466 kts | 330° |
| 2026-04-22 16:14 | 47.04579 | 23.30773 | 40080 ft | 465 kts | 329° |
| 2026-04-22 16:15 | 47.10146 | 23.26066 | 40085 ft | 465 kts | 330° |
| 2026-04-22 16:15 | 47.15762 | 23.21305 | 40080 ft | 466 kts | 330° |
| 2026-04-22 16:16 | 47.21380 | 23.16531 | 40079 ft | 466 kts | 330° |
| 2026-04-22 16:16 | 47.26035 | 23.12503 | 40081 ft | 466 kts | 328° |
| 2026-04-22 16:17 | 47.31491 | 23.07295 | 40078 ft | 467 kts | 326° |
| 2026-04-22 16:17 | 47.36890 | 23.01955 | 40068 ft | 467 kts | 326° |
| 2026-04-22 16:18 | 47.42290 | 22.96629 | 40078 ft | 467 kts | 327° |
| 2026-04-22 16:18 | 47.47665 | 22.91355 | 40074 ft | 468 kts | 327° |
| 2026-04-22 16:19 | 47.53097 | 22.86030 | 40077 ft | 468 kts | 327° |
| 2026-04-22 16:19 | 47.58516 | 22.80704 | 40076 ft | 468 kts | 327° |
| 2026-04-22 16:20 | 47.63938 | 22.75360 | 40074 ft | 468 kts | 327° |
| 2026-04-22 16:20 | 47.69359 | 22.70002 | 40075 ft | 468 kts | 327° |
| 2026-04-22 16:21 | 47.74748 | 22.64663 | 40076 ft | 469 kts | 327° |
| 2026-04-22 16:21 | 47.80170 | 22.59277 | 40077 ft | 469 kts | 327° |
| 2026-04-22 16:22 | 47.88308 | 22.51168 | 40076 ft | 469 kts | 327° |
| 2026-04-22 16:23 | 47.96436 | 22.43038 | 40082 ft | 468 kts | 327° |
| 2026-04-22 16:23 | 48.01818 | 22.37636 | 40083 ft | 468 kts | 327° |
| 2026-04-22 16:24 | 48.09931 | 22.29470 | 40083 ft | 468 kts | 327° |
| 2026-04-22 16:25 | 48.15336 | 22.24012 | 40080 ft | 468 kts | 327° |
| 2026-04-22 16:25 | 48.23409 | 22.15831 | 40083 ft | 469 kts | 327° |
| 2026-04-22 16:26 | 48.28814 | 22.10337 | 40083 ft | 469 kts | 327° |
| 2026-04-22 16:26 | 48.34225 | 22.04823 | 40083 ft | 470 kts | 327° |
| 2026-04-22 16:27 | 48.39635 | 21.99294 | 40094 ft | 470 kts | 327° |
| 2026-04-22 16:27 | 48.45046 | 21.93750 | 40079 ft | 471 kts | 327° |
| 2026-04-22 16:28 | 48.50435 | 21.88215 | 40080 ft | 471 kts | 327° |
| 2026-04-22 16:28 | 48.55850 | 21.82637 | 40083 ft | 470 kts | 327° |
| 2026-04-22 16:29 | 48.61255 | 21.77055 | 40099 ft | 470 kts | 327° |
| 2026-04-22 16:29 | 48.66657 | 21.71461 | 40082 ft | 470 kts | 327° |
| 2026-04-22 16:30 | 48.72052 | 21.65861 | 40086 ft | 470 kts | 327° |
| 2026-04-22 16:30 | 48.77443 | 21.60250 | 40102 ft | 470 kts | 327° |
| 2026-04-22 16:31 | 48.82806 | 21.54652 | 40095 ft | 470 kts | 327° |
| 2026-04-22 16:31 | 48.88196 | 21.49010 | 40098 ft | 469 kts | 327° |
| 2026-04-22 16:32 | 48.93564 | 21.43379 | 40095 ft | 469 kts | 327° |
| 2026-04-22 16:32 | 48.98904 | 21.37762 | 40086 ft | 469 kts | 327° |
| 2026-04-22 16:33 | 49.04264 | 21.32110 | 40093 ft | 469 kts | 327° |
| 2026-04-22 16:33 | 49.09632 | 21.26433 | 40084 ft | 469 kts | 327° |
| 2026-04-22 16:34 | 49.14988 | 21.20752 | 40086 ft | 469 kts | 327° |
| 2026-04-22 16:34 | 49.20347 | 21.15056 | 40090 ft | 469 kts | 327° |
| 2026-04-22 16:35 | 49.25697 | 21.09352 | 40089 ft | 469 kts | 327° |
| 2026-04-22 16:35 | 49.31046 | 21.03633 | 40088 ft | 469 kts | 327° |
| 2026-04-22 16:36 | 49.36125 | 20.97302 | 40090 ft | 471 kts | 321° |
| 2026-04-22 16:36 | 49.40959 | 20.90595 | 40090 ft | 472 kts | 320° |
| 2026-04-22 16:37 | 49.45787 | 20.83745 | 40090 ft | 473 kts | 320° |
| 2026-04-22 16:37 | 49.50633 | 20.76849 | 40096 ft | 473 kts | 320° |
| 2026-04-22 16:38 | 49.55475 | 20.69959 | 40101 ft | 473 kts | 320° |
| 2026-04-22 16:38 | 49.60278 | 20.63115 | 40088 ft | 473 kts | 320° |
| 2026-04-22 16:39 | 49.65119 | 20.56197 | 40105 ft | 473 kts | 320° |
| 2026-04-22 16:39 | 49.69941 | 20.49285 | 40104 ft | 473 kts | 320° |
| 2026-04-22 16:40 | 49.74770 | 20.42345 | 40107 ft | 474 kts | 320° |
| 2026-04-22 16:41 | 49.82018 | 20.31921 | 40095 ft | 474 kts | 320° |
| 2026-04-22 16:41 | 49.86851 | 20.24963 | 40113 ft | 474 kts | 320° |
| 2026-04-22 16:42 | 49.91644 | 20.18014 | 40121 ft | 474 kts | 320° |
| 2026-04-22 16:42 | 49.96455 | 20.11002 | 40136 ft | 474 kts | 320° |
| 2026-04-22 16:43 | 50.01259 | 20.03976 | 40145 ft | 474 kts | 320° |
| 2026-04-22 16:43 | 50.06068 | 19.96926 | 40150 ft | 474 kts | 320° |
| 2026-04-22 16:44 | 50.10886 | 19.89922 | 40153 ft | 474 kts | 321° |
| 2026-04-22 16:44 | 50.15724 | 19.82928 | 40159 ft | 474 kts | 321° |
| 2026-04-22 16:45 | 50.20536 | 19.75952 | 40154 ft | 474 kts | 320° |
| 2026-04-22 16:45 | 50.25371 | 19.68918 | 40149 ft | 474 kts | 320° |
| 2026-04-22 16:46 | 50.30199 | 19.61899 | 40138 ft | 474 kts | 321° |
| 2026-04-22 16:46 | 50.35041 | 19.54901 | 40145 ft | 474 kts | 321° |
| 2026-04-22 16:47 | 50.39860 | 19.47925 | 40157 ft | 474 kts | 321° |
| 2026-04-22 16:47 | 50.44014 | 19.42226 | 40157 ft | 471 kts | 326° |
| 2026-04-22 16:48 | 50.50131 | 19.35093 | 40147 ft | 470 kts | 327° |
| 2026-04-22 16:48 | 50.55426 | 19.29033 | 40157 ft | 470 kts | 327° |
| 2026-04-22 16:49 | 50.60723 | 19.22978 | 40153 ft | 470 kts | 328° |
| 2026-04-22 16:49 | 50.63334 | 19.19990 | 39943 ft | 470 kts | 328° |
| 2026-04-22 16:49 | 50.65975 | 19.16962 | 39716 ft | 469 kts | 328° |
| 2026-04-22 16:49 | 50.68619 | 19.13929 | 39481 ft | 469 kts | 328° |
| 2026-04-22 16:50 | 50.71249 | 19.10906 | 39220 ft | 465 kts | 328° |
| 2026-04-22 16:50 | 50.73866 | 19.07896 | 38714 ft | 465 kts | 328° |
| 2026-04-22 16:50 | 50.76457 | 19.04912 | 38033 ft | 467 kts | 328° |
| 2026-04-22 16:50 | 50.79076 | 19.01889 | 37454 ft | 466 kts | 329° |
| 2026-04-22 16:51 | 50.81698 | 18.98859 | 36871 ft | 466 kts | 329° |
| 2026-04-22 16:51 | 50.84317 | 18.95829 | 36265 ft | 467 kts | 329° |
| 2026-04-22 16:51 | 50.86948 | 18.92779 | 35586 ft | 470 kts | 330° |
| 2026-04-22 16:51 | 50.89592 | 18.89712 | 34884 ft | 473 kts | 330° |
| 2026-04-22 16:52 | 50.92266 | 18.86606 | 34154 ft | 477 kts | 331° |
| 2026-04-22 16:52 | 50.94949 | 18.83482 | 33293 ft | 479 kts | 330° |
| 2026-04-22 16:52 | 50.97648 | 18.80335 | 32521 ft | 480 kts | 330° |
| 2026-04-22 16:52 | 51.00312 | 18.77223 | 31715 ft | 481 kts | 330° |
| 2026-04-22 16:53 | 51.02893 | 18.74204 | 30938 ft | 482 kts | 330° |
| 2026-04-22 16:53 | 51.05603 | 18.71030 | 30090 ft | 484 kts | 329° |
| 2026-04-22 16:53 | 51.08302 | 18.67860 | 29515 ft | 478 kts | 329° |
| 2026-04-22 16:53 | 51.10958 | 18.64734 | 28988 ft | 471 kts | 329° |
| 2026-04-22 16:54 | 51.13572 | 18.61658 | 28437 ft | 464 kts | 329° |
| 2026-04-22 16:54 | 51.16157 | 18.58614 | 27890 ft | 459 kts | 329° |
| 2026-04-22 16:54 | 51.18707 | 18.55608 | 27341 ft | 453 kts | 329° |
| 2026-04-22 16:54 | 51.21227 | 18.52632 | 26814 ft | 448 kts | 329° |
| 2026-04-22 16:55 | 51.23717 | 18.49690 | 26270 ft | 443 kts | 329° |
| 2026-04-22 16:55 | 51.26180 | 18.46775 | 25752 ft | 438 kts | 329° |
| 2026-04-22 16:55 | 51.28617 | 18.43887 | 25218 ft | 434 kts | 329° |
| 2026-04-22 16:55 | 51.31005 | 18.41053 | 24681 ft | 430 kts | 328° |
| 2026-04-22 16:56 | 51.33401 | 18.38207 | 24164 ft | 426 kts | 328° |
| 2026-04-22 16:56 | 51.35772 | 18.35385 | 23639 ft | 423 kts | 328° |
| 2026-04-22 16:56 | 51.38124 | 18.32582 | 23050 ft | 419 kts | 328° |
| 2026-04-22 16:56 | 51.40443 | 18.29814 | 22530 ft | 413 kts | 328° |
| 2026-04-22 16:57 | 51.42730 | 18.27079 | 22010 ft | 408 kts | 328° |
| 2026-04-22 16:57 | 51.45002 | 18.24361 | 21511 ft | 403 kts | 328° |
| 2026-04-22 16:57 | 51.47212 | 18.21714 | 21015 ft | 398 kts | 328° |
| 2026-04-22 16:57 | 51.49418 | 18.19069 | 20519 ft | 394 kts | 328° |
| 2026-04-22 16:58 | 51.50900 | 18.17290 | 20186 ft | 391 kts | 328° |
| 2026-04-22 16:58 | 51.53761 | 18.13851 | 19534 ft | 385 kts | 328° |
| 2026-04-22 16:58 | 51.55899 | 18.11279 | 19062 ft | 381 kts | 328° |
| 2026-04-22 16:58 | 51.58016 | 18.08728 | 18576 ft | 377 kts | 328° |
| 2026-04-22 16:59 | 51.60106 | 18.06205 | 18074 ft | 373 kts | 328° |
| 2026-04-22 16:59 | 51.62175 | 18.03707 | 17584 ft | 369 kts | 328° |
| 2026-04-22 16:59 | 51.64184 | 18.01277 | 17137 ft | 364 kts | 328° |
| 2026-04-22 16:59 | 51.66199 | 17.98838 | 16645 ft | 360 kts | 328° |
| 2026-04-22 17:00 | 51.68197 | 17.96416 | 16155 ft | 357 kts | 327° |
| 2026-04-22 17:00 | 51.72132 | 17.91641 | 15178 ft | 350 kts | 327° |
| 2026-04-22 17:00 | 51.74070 | 17.89284 | 14689 ft | 348 kts | 327° |
| 2026-04-22 17:01 | 51.75998 | 17.86938 | 14202 ft | 346 kts | 327° |
| 2026-04-22 17:01 | 51.77912 | 17.84605 | 13651 ft | 344 kts | 327° |
| 2026-04-22 17:01 | 51.79808 | 17.82291 | 13132 ft | 340 kts | 326° |
| 2026-04-22 17:01 | 51.81690 | 17.79991 | 12627 ft | 337 kts | 326° |
| 2026-04-22 17:02 | 51.83547 | 17.77720 | 12116 ft | 333 kts | 326° |
| 2026-04-22 17:02 | 51.85383 | 17.75471 | 11628 ft | 329 kts | 326° |
| 2026-04-22 17:02 | 51.87177 | 17.73273 | 11166 ft | 325 kts | 326° |
| 2026-04-22 17:02 | 51.88937 | 17.71112 | 11078 ft | 309 kts | 326° |
| 2026-04-22 17:03 | 51.90604 | 17.69063 | 11008 ft | 293 kts | 326° |
| 2026-04-22 17:03 | 51.92191 | 17.67114 | 10879 ft | 280 kts | 326° |
| 2026-04-22 17:03 | 51.93713 | 17.65246 | 10754 ft | 268 kts | 326° |
| 2026-04-22 17:03 | 51.95180 | 17.63445 | 10635 ft | 260 kts | 326° |
| 2026-04-22 17:04 | 51.96126 | 17.62283 | 10545 ft | 254 kts | 326° |
| 2026-04-22 17:04 | 51.97955 | 17.60033 | 10401 ft | 245 kts | 326° |
| 2026-04-22 17:04 | 51.99323 | 17.58353 | 10176 ft | 247 kts | 326° |
| 2026-04-22 17:04 | 52.00693 | 17.56666 | 9820 ft | 247 kts | 326° |
| 2026-04-22 17:05 | 52.01598 | 17.55550 | 9628 ft | 245 kts | 326° |
| 2026-04-22 17:05 | 52.02948 | 17.53881 | 9316 ft | 243 kts | 325° |
| 2026-04-22 17:05 | 52.04298 | 17.52212 | 8950 ft | 245 kts | 325° |
| 2026-04-22 17:05 | 52.05664 | 17.50523 | 8551 ft | 248 kts | 324° |
| 2026-04-22 17:06 | 52.07033 | 17.48825 | 8250 ft | 247 kts | 324° |
| 2026-04-22 17:06 | 52.08397 | 17.47133 | 7937 ft | 246 kts | 324° |
| 2026-04-22 17:06 | 52.09758 | 17.45442 | 7639 ft | 246 kts | 324° |
| 2026-04-22 17:06 | 52.11118 | 17.43752 | 7339 ft | 246 kts | 323° |
| 2026-04-22 17:07 | 52.12473 | 17.42067 | 7045 ft | 245 kts | 323° |
| 2026-04-22 17:07 | 52.13828 | 17.40380 | 6743 ft | 245 kts | 323° |
| 2026-04-22 17:07 | 52.15181 | 17.38695 | 6424 ft | 244 kts | 323° |
| 2026-04-22 17:07 | 52.16527 | 17.37015 | 6116 ft | 243 kts | 323° |
| 2026-04-22 17:08 | 52.17866 | 17.35345 | 5794 ft | 242 kts | 323° |
| 2026-04-22 17:08 | 52.19182 | 17.33701 | 5504 ft | 241 kts | 323° |
| 2026-04-22 17:08 | 52.20512 | 17.32040 | 5215 ft | 240 kts | 323° |
| 2026-04-22 17:08 | 52.21838 | 17.30381 | 4923 ft | 240 kts | 323° |
| 2026-04-22 17:09 | 52.23161 | 17.28726 | 4597 ft | 239 kts | 322° |
| 2026-04-22 17:09 | 52.24478 | 17.27076 | 4304 ft | 238 kts | 322° |
| 2026-04-22 17:09 | 52.25786 | 17.25435 | 4099 ft | 232 kts | 323° |
| 2026-04-22 17:09 | 52.27037 | 17.23867 | 4048 ft | 221 kts | 323° |
| 2026-04-22 17:10 | 52.28252 | 17.22341 | 3958 ft | 220 kts | 323° |
| 2026-04-22 17:10 | 52.29472 | 17.20811 | 3856 ft | 221 kts | 322° |
| 2026-04-22 17:10 | 52.30677 | 17.19299 | 3738 ft | 221 kts | 322° |
| 2026-04-22 17:10 | 52.31885 | 17.17781 | 3630 ft | 215 kts | 322° |
| 2026-04-22 17:11 | 52.33045 | 17.16323 | 3580 ft | 205 kts | 322° |
| 2026-04-22 17:11 | 52.34153 | 17.14930 | 3454 ft | 198 kts | 322° |
| 2026-04-22 17:11 | 52.35234 | 17.13568 | 3215 ft | 194 kts | 322° |
| 2026-04-22 17:11 | 52.36158 | 17.12008 | 3027 ft | 189 kts | 306° |
| 2026-04-22 17:12 | 52.36753 | 17.10111 | 2984 ft | 184 kts | 294° |
| 2026-04-22 17:12 | 52.37157 | 17.08159 | 2998 ft | 175 kts | 291° |
| 2026-04-22 17:12 | 52.37501 | 17.06341 | 2992 ft | 164 kts | 291° |
| 2026-04-22 17:12 | 52.37837 | 17.04600 | 2931 ft | 158 kts | 292° |
| 2026-04-22 17:13 | 52.38175 | 17.02908 | 2723 ft | 153 kts | 294° |
| 2026-04-22 17:13 | 52.38489 | 17.01288 | 2501 ft | 145 kts | 294° |
| 2026-04-22 17:13 | 52.38780 | 16.99776 | 2297 ft | 134 kts | 294° |
| 2026-04-22 17:13 | 52.39054 | 16.98364 | 2128 ft | 129 kts | 294° |
| 2026-04-22 17:14 | 52.39330 | 16.96951 | 1952 ft | 131 kts | 294° |
| 2026-04-22 17:14 | 52.39600 | 16.95553 | 1761 ft | 126 kts | 294° |
| 2026-04-22 17:14 | 52.39846 | 16.94277 | 1610 ft | 120 kts | 293° |
| 2026-04-22 17:14 | 52.40095 | 16.92994 | 1453 ft | 121 kts | 290° |
| 2026-04-22 17:15 | 52.40265 | 16.92122 | 1349 ft | 122 kts | 290° |
| 2026-04-22 17:15 | 52.40610 | 16.90336 | 1126 ft | 124 kts | 292° |
| 2026-04-22 17:15 | 52.40868 | 16.88986 | 963 ft | 124 kts | 290° |
| 2026-04-22 17:15 | 52.41128 | 16.87647 | 786 ft | 125 kts | 291° |
| 2026-04-22 17:16 | 52.41397 | 16.86269 | 621 ft | 130 kts | 291° |
| 2026-04-22 17:16 | 52.41670 | 16.84851 | 415 ft | 130 kts | 290° |
| 2026-04-22 17:16 | 52.41939 | 16.83445 | 297 ft | 123 kts | 291° |
| 2026-04-22 17:16 | 52.42131 | 16.82492 | 295 ft | 50 kts | 287° |
| 2026-04-22 17:17 | 52.42229 | 16.81988 | 296 ft | 43 kts | 287° |
| 2026-04-22 17:17 | 52.42293 | 16.81589 | 296 ft | 31 kts | 275° |
| 2026-04-22 17:17 | 52.42283 | 16.81294 | 293 ft | 22 kts | 260° |
| 2026-04-22 17:17 | 52.42253 | 16.81048 | 296 ft | 22 kts | 265° |
| 2026-04-22 17:18 | 52.42283 | 16.80798 | 294 ft | 23 kts | 287° |
| 2026-04-22 17:18 | 52.42326 | 16.80606 | 296 ft | 13 kts | 304° |
| 2026-04-22 17:18 | 52.42409 | 16.80574 | 295 ft | 13 kts | 12° |
| 2026-04-22 17:18 | 52.42470 | 16.80671 | 297 ft | 13 kts | 83° |
| 2026-04-22 17:19 | 52.42426 | 16.80967 | 295 ft | 16 kts | 105° |
| 2026-04-22 17:19 | 52.42341 | 16.81408 | 297 ft | 32 kts | 107° |
| 2026-04-22 17:20 | 52.42184 | 16.82219 | 299 ft | 38 kts | 111° |
| 2026-04-22 17:20 | 52.42027 | 16.82960 | 293 ft | 18 kts | 141° |
| 2026-04-22 17:21 | 52.41917 | 16.82953 | 296 ft | 16 kts | 198° |
| 2026-04-22 17:21 | 52.41745 | 16.82863 | 293 ft | 9 kts | 196° |
| 2026-04-22 17:22 | 52.41693 | 16.82841 | 295 ft | 1 kts | 180° |
| 2026-04-22 17:22 | 52.41689 | 16.82842 | 292 ft | 2 kts | 174° |
| 2026-04-22 17:22 | 52.41647 | 16.82842 | 294 ft | 5 kts | 185° |
| 2026-04-22 17:23 | 52.41609 | 16.82833 | 295 ft | 0 kts | 192° |
| 2026-04-22 17:23 | 52.41586 | 16.82824 | 296 ft | 2 kts | 193° |